sensor_id;sensor_type;location;lat;lon;timestamp;P1;durP1;ratioP1;P2;durP2;ratioP2
60873;SDS011;46715;40.642;-7.920;2023-03-14T00:37:59;24.85;;;4.90;;
60873;SDS011;46715;40.642;-7.920;2023-03-14T00:40:06;30.40;;;6.22;;
60873;SDS011;46715;40.642;-7.920;2023-03-14T02:18:23;24.42;;;3.88;;
60873;SDS011;46715;40.642;-7.920;2023-03-14T03:28:54;20.77;;;4.50;;
60873;SDS011;46715;40.642;-7.920;2023-03-14T03:54:44;19.20;;;4.28;;
60873;SDS011;46715;40.642;-7.920;2023-03-14T04:26:58;16.98;;;4.00;;
60873;SDS011;46715;40.642;-7.920;2023-03-14T04:29:00;20.65;;;4.45;;
60873;SDS011;46715;40.642;-7.920;2023-03-14T04:31:07;19.90;;;5.33;;
60873;SDS011;46715;40.642;-7.920;2023-03-14T04:33:09;17.73;;;5.47;;
60873;SDS011;46715;40.642;-7.920;2023-03-14T04:35:32;24.10;;;5.72;;
60873;SDS011;46715;40.642;-7.920;2023-03-14T05:30:47;19.98;;;4.32;;
60873;SDS011;46715;40.642;-7.920;2023-03-14T06:36:50;21.48;;;6.03;;
60873;SDS011;46715;40.642;-7.920;2023-03-14T06:46:20;23.05;;;5.45;;
60873;SDS011;46715;40.642;-7.920;2023-03-14T06:48:21;26.42;;;6.13;;
60873;SDS011;46715;40.642;-7.920;2023-03-14T06:50:26;20.67;;;6.30;;
60873;SDS011;46715;40.642;-7.920;2023-03-14T06:52:27;22.00;;;5.47;;
60873;SDS011;46715;40.642;-7.920;2023-03-14T06:54:28;22.37;;;5.27;;
60873;SDS011;46715;40.642;-7.920;2023-03-14T06:56:28;21.70;;;5.07;;
60873;SDS011;46715;40.642;-7.920;2023-03-14T06:58:30;22.88;;;5.15;;
60873;SDS011;46715;40.642;-7.920;2023-03-14T07:00:31;19.48;;;5.32;;
60873;SDS011;46715;40.642;-7.920;2023-03-14T07:02:32;17.88;;;4.78;;
60873;SDS011;46715;40.642;-7.920;2023-03-14T07:04:35;25.23;;;4.90;;
60873;SDS011;46715;40.642;-7.920;2023-03-14T07:06:36;21.73;;;4.90;;
60873;SDS011;46715;40.642;-7.920;2023-03-14T07:08:38;20.40;;;5.15;;
60873;SDS011;46715;40.642;-7.920;2023-03-14T07:10:39;18.87;;;5.33;;
60873;SDS011;46715;40.642;-7.920;2023-03-14T07:14:47;19.35;;;4.43;;
60873;SDS011;46715;40.642;-7.920;2023-03-14T07:16:48;18.53;;;4.23;;
60873;SDS011;46715;40.642;-7.920;2023-03-14T07:18:58;19.73;;;4.53;;
60873;SDS011;46715;40.642;-7.920;2023-03-14T07:21:08;19.02;;;4.07;;
60873;SDS011;46715;40.642;-7.920;2023-03-14T08:33:01;41.80;;;5.43;;
60873;SDS011;46715;40.642;-7.920;2023-03-14T08:37:42;46.53;;;5.22;;
60873;SDS011;46715;40.642;-7.920;2023-03-14T08:39:55;19.23;;;4.97;;
60873;SDS011;46715;40.642;-7.920;2023-03-14T08:55:24;39.28;;;4.97;;
60873;SDS011;46715;40.642;-7.920;2023-03-14T09:07:48;22.02;;;4.20;;
60873;SDS011;46715;40.642;-7.920;2023-03-14T09:09:58;27.05;;;4.55;;
60873;SDS011;46715;40.642;-7.920;2023-03-14T09:12:14;14.98;;;4.20;;
60873;SDS011;46715;40.642;-7.920;2023-03-14T09:14:14;11.50;;;4.82;;
60873;SDS011;46715;40.642;-7.920;2023-03-14T09:16:15;13.27;;;4.63;;
60873;SDS011;46715;40.642;-7.920;2023-03-14T09:18:16;10.50;;;3.58;;
60873;SDS011;46715;40.642;-7.920;2023-03-14T09:20:17;11.07;;;3.70;;
60873;SDS011;46715;40.642;-7.920;2023-03-14T09:22:18;9.43;;;4.10;;
60873;SDS011;46715;40.642;-7.920;2023-03-14T09:24:19;8.40;;;3.13;;
60873;SDS011;46715;40.642;-7.920;2023-03-14T09:26:20;7.65;;;2.85;;
60873;SDS011;46715;40.642;-7.920;2023-03-14T09:28:21;17.27;;;8.77;;
60873;SDS011;46715;40.642;-7.920;2023-03-14T09:30:22;9.52;;;4.55;;
60873;SDS011;46715;40.642;-7.920;2023-03-14T09:32:23;11.98;;;3.78;;
60873;SDS011;46715;40.642;-7.920;2023-03-14T09:34:25;7.25;;;3.83;;
60873;SDS011;46715;40.642;-7.920;2023-03-14T09:36:26;9.95;;;3.22;;
60873;SDS011;46715;40.642;-7.920;2023-03-14T09:38:26;6.27;;;2.87;;
60873;SDS011;46715;40.642;-7.920;2023-03-14T09:40:31;11.23;;;4.32;;
60873;SDS011;46715;40.642;-7.920;2023-03-14T09:42:34;15.00;;;4.40;;
60873;SDS011;46715;40.642;-7.920;2023-03-14T09:44:39;10.07;;;3.20;;
60873;SDS011;46715;40.642;-7.920;2023-03-14T09:47:06;14.93;;;4.10;;
60873;SDS011;46715;40.642;-7.920;2023-03-14T09:49:17;10.75;;;3.55;;
60873;SDS011;46715;40.642;-7.920;2023-03-14T09:51:29;9.23;;;3.25;;
60873;SDS011;46715;40.642;-7.920;2023-03-14T09:53:41;15.23;;;3.75;;
60873;SDS011;46715;40.642;-7.920;2023-03-14T09:55:47;11.07;;;3.05;;
60873;SDS011;46715;40.642;-7.920;2023-03-14T09:57:51;8.25;;;3.30;;
60873;SDS011;46715;40.642;-7.920;2023-03-14T10:00:00;13.63;;;3.42;;
60873;SDS011;46715;40.642;-7.920;2023-03-14T10:02:16;10.77;;;2.67;;
60873;SDS011;46715;40.642;-7.920;2023-03-14T10:04:21;10.52;;;3.13;;
60873;SDS011;46715;40.642;-7.920;2023-03-14T10:06:24;12.95;;;3.33;;
60873;SDS011;46715;40.642;-7.920;2023-03-14T10:08:27;9.90;;;3.13;;
60873;SDS011;46715;40.642;-7.920;2023-03-14T10:10:28;12.07;;;3.00;;
60873;SDS011;46715;40.642;-7.920;2023-03-14T10:12:31;13.30;;;3.42;;
60873;SDS011;46715;40.642;-7.920;2023-03-14T10:14:35;10.15;;;3.38;;
60873;SDS011;46715;40.642;-7.920;2023-03-14T10:16:43;13.23;;;4.32;;
60873;SDS011;46715;40.642;-7.920;2023-03-14T10:18:46;12.30;;;3.97;;
60873;SDS011;46715;40.642;-7.920;2023-03-14T10:20:47;10.90;;;4.00;;
60873;SDS011;46715;40.642;-7.920;2023-03-14T10:22:50;13.15;;;3.33;;
60873;SDS011;46715;40.642;-7.920;2023-03-14T10:24:54;17.25;;;4.00;;
60873;SDS011;46715;40.642;-7.920;2023-03-14T10:27:00;14.57;;;3.35;;
60873;SDS011;46715;40.642;-7.920;2023-03-14T10:29:13;15.60;;;3.17;;
60873;SDS011;46715;40.642;-7.920;2023-03-14T10:31:14;19.95;;;4.38;;
60873;SDS011;46715;40.642;-7.920;2023-03-14T10:35:23;13.88;;;3.80;;
60873;SDS011;46715;40.642;-7.920;2023-03-14T10:37:24;22.48;;;4.68;;
60873;SDS011;46715;40.642;-7.920;2023-03-14T10:41:48;18.30;;;3.67;;
60873;SDS011;46715;40.642;-7.920;2023-03-14T10:43:53;20.23;;;4.38;;
60873;SDS011;46715;40.642;-7.920;2023-03-14T10:46:01;16.05;;;4.32;;
60873;SDS011;46715;40.642;-7.920;2023-03-14T10:48:18;19.38;;;4.03;;
60873;SDS011;46715;40.642;-7.920;2023-03-14T10:52:27;12.43;;;3.05;;
60873;SDS011;46715;40.642;-7.920;2023-03-14T10:54:30;14.40;;;3.38;;
60873;SDS011;46715;40.642;-7.920;2023-03-14T10:56:35;15.30;;;4.22;;
60873;SDS011;46715;40.642;-7.920;2023-03-14T10:58:46;16.83;;;3.65;;
60873;SDS011;46715;40.642;-7.920;2023-03-14T11:01:02;19.25;;;3.65;;
60873;SDS011;46715;40.642;-7.920;2023-03-14T11:03:14;16.80;;;3.28;;
60873;SDS011;46715;40.642;-7.920;2023-03-14T11:07:40;13.38;;;3.47;;
60873;SDS011;46715;40.642;-7.920;2023-03-14T11:09:45;13.40;;;3.92;;
60873;SDS011;46715;40.642;-7.920;2023-03-14T11:11:47;15.15;;;5.03;;
60873;SDS011;46715;40.642;-7.920;2023-03-14T11:13:53;12.30;;;3.87;;
60873;SDS011;46715;40.642;-7.920;2023-03-14T11:16:24;14.10;;;3.95;;
60873;SDS011;46715;40.642;-7.920;2023-03-14T11:18:41;13.50;;;4.03;;
60873;SDS011;46715;40.642;-7.920;2023-03-14T11:21:08;14.57;;;3.47;;
60873;SDS011;46715;40.642;-7.920;2023-03-14T11:23:18;12.30;;;4.10;;
60873;SDS011;46715;40.642;-7.920;2023-03-14T11:27:56;13.40;;;3.60;;
60873;SDS011;46715;40.642;-7.920;2023-03-14T11:35:13;8.88;;;2.95;;
60873;SDS011;46715;40.642;-7.920;2023-03-14T11:37:26;10.82;;;2.90;;
60873;SDS011;46715;40.642;-7.920;2023-03-14T11:39:38;12.77;;;2.50;;
60873;SDS011;46715;40.642;-7.920;2023-03-14T11:41:42;12.60;;;3.20;;
60873;SDS011;46715;40.642;-7.920;2023-03-14T11:43:48;12.40;;;2.90;;
60873;SDS011;46715;40.642;-7.920;2023-03-14T11:46:05;10.75;;;3.15;;
60873;SDS011;46715;40.642;-7.920;2023-03-14T11:50:32;8.80;;;2.67;;
60873;SDS011;46715;40.642;-7.920;2023-03-14T11:52:36;9.68;;;2.70;;
60873;SDS011;46715;40.642;-7.920;2023-03-14T11:58:57;7.40;;;2.30;;
60873;SDS011;46715;40.642;-7.920;2023-03-14T12:01:02;11.77;;;2.60;;
60873;SDS011;46715;40.642;-7.920;2023-03-14T12:05:36;10.52;;;2.65;;
60873;SDS011;46715;40.642;-7.920;2023-03-14T12:10:04;16.55;;;3.03;;
60873;SDS011;46715;40.642;-7.920;2023-03-14T12:12:05;11.93;;;2.95;;
60873;SDS011;46715;40.642;-7.920;2023-03-14T12:14:22;9.02;;;3.03;;
60873;SDS011;46715;40.642;-7.920;2023-03-14T12:16:35;12.40;;;3.10;;
60873;SDS011;46715;40.642;-7.920;2023-03-14T12:18:39;9.57;;;2.70;;
60873;SDS011;46715;40.642;-7.920;2023-03-14T12:20:41;10.88;;;3.25;;
60873;SDS011;46715;40.642;-7.920;2023-03-14T12:24:58;13.35;;;2.92;;
60873;SDS011;46715;40.642;-7.920;2023-03-14T12:27:05;11.38;;;3.45;;
60873;SDS011;46715;40.642;-7.920;2023-03-14T12:29:11;11.10;;;3.30;;
60873;SDS011;46715;40.642;-7.920;2023-03-14T12:33:32;11.27;;;2.83;;
60873;SDS011;46715;40.642;-7.920;2023-03-14T12:35:40;13.68;;;3.40;;
60873;SDS011;46715;40.642;-7.920;2023-03-14T12:37:44;10.50;;;2.40;;
60873;SDS011;46715;40.642;-7.920;2023-03-14T12:46:31;8.60;;;2.63;;
60873;SDS011;46715;40.642;-7.920;2023-03-14T12:48:32;12.55;;;3.05;;
60873;SDS011;46715;40.642;-7.920;2023-03-14T12:55:20;15.57;;;2.40;;
60873;SDS011;46715;40.642;-7.920;2023-03-14T12:57:50;9.98;;;1.80;;
60873;SDS011;46715;40.642;-7.920;2023-03-14T12:59:59;9.30;;;2.20;;
60873;SDS011;46715;40.642;-7.920;2023-03-14T13:04:11;7.82;;;2.35;;
60873;SDS011;46715;40.642;-7.920;2023-03-14T13:06:12;8.20;;;2.00;;
60873;SDS011;46715;40.642;-7.920;2023-03-14T13:08:35;10.43;;;2.17;;
60873;SDS011;46715;40.642;-7.920;2023-03-14T13:10:48;7.93;;;1.85;;
60873;SDS011;46715;40.642;-7.920;2023-03-14T13:12:57;13.00;;;2.10;;
60873;SDS011;46715;40.642;-7.920;2023-03-14T13:15:02;7.30;;;2.55;;
60873;SDS011;46715;40.642;-7.920;2023-03-14T13:17:15;11.35;;;2.60;;
60873;SDS011;46715;40.642;-7.920;2023-03-14T13:19:24;8.00;;;1.83;;
60873;SDS011;46715;40.642;-7.920;2023-03-14T13:21:28;7.63;;;2.30;;
60873;SDS011;46715;40.642;-7.920;2023-03-14T13:23:36;9.43;;;2.63;;
60873;SDS011;46715;40.642;-7.920;2023-03-14T13:25:38;8.85;;;2.58;;
60873;SDS011;46715;40.642;-7.920;2023-03-14T13:27:40;11.50;;;2.22;;
60873;SDS011;46715;40.642;-7.920;2023-03-14T13:29:42;11.02;;;1.75;;
60873;SDS011;46715;40.642;-7.920;2023-03-14T13:31:43;10.93;;;1.83;;
60873;SDS011;46715;40.642;-7.920;2023-03-14T13:33:46;13.18;;;2.15;;
60873;SDS011;46715;40.642;-7.920;2023-03-14T13:36:05;12.27;;;2.13;;
60873;SDS011;46715;40.642;-7.920;2023-03-14T13:38:13;8.20;;;2.10;;
60873;SDS011;46715;40.642;-7.920;2023-03-14T13:40:23;5.72;;;1.77;;
60873;SDS011;46715;40.642;-7.920;2023-03-14T13:42:27;4.35;;;1.35;;
60873;SDS011;46715;40.642;-7.920;2023-03-14T13:44:34;9.30;;;2.70;;
60873;SDS011;46715;40.642;-7.920;2023-03-14T13:46:39;10.07;;;2.25;;
60873;SDS011;46715;40.642;-7.920;2023-03-14T13:48:49;7.22;;;1.80;;
60873;SDS011;46715;40.642;-7.920;2023-03-14T13:53:10;9.00;;;1.90;;
60873;SDS011;46715;40.642;-7.920;2023-03-14T13:55:16;11.05;;;1.65;;
60873;SDS011;46715;40.642;-7.920;2023-03-14T13:57:19;6.68;;;1.40;;
60873;SDS011;46715;40.642;-7.920;2023-03-14T13:59:29;7.68;;;1.88;;
60873;SDS011;46715;40.642;-7.920;2023-03-14T14:01:35;6.75;;;1.48;;
60873;SDS011;46715;40.642;-7.920;2023-03-14T14:03:39;5.90;;;1.48;;
60873;SDS011;46715;40.642;-7.920;2023-03-14T14:05:43;7.32;;;2.22;;
60873;SDS011;46715;40.642;-7.920;2023-03-14T14:07:45;5.65;;;1.45;;
60873;SDS011;46715;40.642;-7.920;2023-03-14T14:09:47;6.55;;;1.48;;
60873;SDS011;46715;40.642;-7.920;2023-03-14T14:13:56;11.55;;;1.90;;
60873;SDS011;46715;40.642;-7.920;2023-03-14T14:15:58;11.68;;;2.30;;
60873;SDS011;46715;40.642;-7.920;2023-03-14T14:18:01;16.13;;;2.58;;
60873;SDS011;46715;40.642;-7.920;2023-03-14T14:20:16;9.38;;;2.70;;
60873;SDS011;46715;40.642;-7.920;2023-03-14T14:22:43;12.70;;;2.60;;
60873;SDS011;46715;40.642;-7.920;2023-03-14T14:24:43;8.23;;;2.10;;
60873;SDS011;46715;40.642;-7.920;2023-03-14T14:26:50;4.55;;;1.63;;
60873;SDS011;46715;40.642;-7.920;2023-03-14T14:29:00;11.32;;;2.63;;
60873;SDS011;46715;40.642;-7.920;2023-03-14T14:33:20;9.02;;;2.20;;
60873;SDS011;46715;40.642;-7.920;2023-03-14T14:35:30;9.35;;;2.03;;
60873;SDS011;46715;40.642;-7.920;2023-03-14T14:37:41;6.68;;;2.05;;
60873;SDS011;46715;40.642;-7.920;2023-03-14T14:39:43;11.90;;;3.23;;
60873;SDS011;46715;40.642;-7.920;2023-03-14T14:41:44;8.57;;;1.97;;
60873;SDS011;46715;40.642;-7.920;2023-03-14T14:43:51;6.25;;;2.20;;
60873;SDS011;46715;40.642;-7.920;2023-03-14T14:45:53;7.80;;;2.38;;
60873;SDS011;46715;40.642;-7.920;2023-03-14T14:48:06;9.32;;;2.30;;
60873;SDS011;46715;40.642;-7.920;2023-03-14T14:50:20;8.88;;;2.42;;
60873;SDS011;46715;40.642;-7.920;2023-03-14T14:52:42;8.00;;;2.35;;
60873;SDS011;46715;40.642;-7.920;2023-03-14T14:54:45;11.68;;;2.50;;
60873;SDS011;46715;40.642;-7.920;2023-03-14T14:56:51;4.60;;;1.42;;
60873;SDS011;46715;40.642;-7.920;2023-03-14T14:58:59;7.95;;;1.98;;
60873;SDS011;46715;40.642;-7.920;2023-03-14T15:03:31;12.40;;;2.08;;
60873;SDS011;46715;40.642;-7.920;2023-03-14T15:05:33;6.40;;;2.13;;
60873;SDS011;46715;40.642;-7.920;2023-03-14T15:07:36;6.22;;;1.73;;
60873;SDS011;46715;40.642;-7.920;2023-03-14T15:09:37;8.85;;;2.03;;
60873;SDS011;46715;40.642;-7.920;2023-03-14T15:11:43;11.00;;;2.10;;
60873;SDS011;46715;40.642;-7.920;2023-03-14T15:13:44;10.15;;;2.08;;
60873;SDS011;46715;40.642;-7.920;2023-03-14T15:15:45;7.78;;;1.90;;
60873;SDS011;46715;40.642;-7.920;2023-03-14T15:17:47;8.35;;;1.70;;
60873;SDS011;46715;40.642;-7.920;2023-03-14T15:19:48;9.13;;;2.15;;
60873;SDS011;46715;40.642;-7.920;2023-03-14T15:21:49;5.10;;;1.60;;
60873;SDS011;46715;40.642;-7.920;2023-03-14T15:23:50;8.07;;;2.00;;
60873;SDS011;46715;40.642;-7.920;2023-03-14T15:25:52;12.77;;;2.30;;
60873;SDS011;46715;40.642;-7.920;2023-03-14T15:27:52;9.37;;;2.13;;
60873;SDS011;46715;40.642;-7.920;2023-03-14T15:29:53;14.02;;;2.10;;
60873;SDS011;46715;40.642;-7.920;2023-03-14T15:31:57;8.70;;;1.67;;
60873;SDS011;46715;40.642;-7.920;2023-03-14T15:33:58;9.90;;;2.40;;
60873;SDS011;46715;40.642;-7.920;2023-03-14T15:35:59;7.10;;;2.80;;
60873;SDS011;46715;40.642;-7.920;2023-03-14T15:38:01;10.65;;;2.42;;
60873;SDS011;46715;40.642;-7.920;2023-03-14T15:40:03;16.27;;;2.57;;
60873;SDS011;46715;40.642;-7.920;2023-03-14T15:42:12;7.38;;;1.77;;
60873;SDS011;46715;40.642;-7.920;2023-03-14T15:44:12;9.82;;;2.22;;
60873;SDS011;46715;40.642;-7.920;2023-03-14T15:46:14;8.82;;;2.65;;
60873;SDS011;46715;40.642;-7.920;2023-03-14T15:48:18;7.95;;;2.25;;
60873;SDS011;46715;40.642;-7.920;2023-03-14T15:50:21;11.45;;;2.53;;
60873;SDS011;46715;40.642;-7.920;2023-03-14T15:52:22;6.75;;;2.15;;
60873;SDS011;46715;40.642;-7.920;2023-03-14T15:54:23;12.17;;;2.47;;
60873;SDS011;46715;40.642;-7.920;2023-03-14T15:56:28;13.23;;;2.83;;
60873;SDS011;46715;40.642;-7.920;2023-03-14T15:58:32;7.78;;;2.60;;
60873;SDS011;46715;40.642;-7.920;2023-03-14T16:00:34;7.55;;;2.80;;
60873;SDS011;46715;40.642;-7.920;2023-03-14T16:02:38;7.90;;;2.50;;
60873;SDS011;46715;40.642;-7.920;2023-03-14T16:04:41;12.82;;;3.15;;
60873;SDS011;46715;40.642;-7.920;2023-03-14T16:06:42;13.60;;;2.17;;
60873;SDS011;46715;40.642;-7.920;2023-03-14T16:08:45;11.88;;;2.50;;
60873;SDS011;46715;40.642;-7.920;2023-03-14T16:12:47;10.43;;;2.63;;
60873;SDS011;46715;40.642;-7.920;2023-03-14T16:14:48;10.32;;;2.88;;
60873;SDS011;46715;40.642;-7.920;2023-03-14T16:16:48;14.07;;;2.90;;
60873;SDS011;46715;40.642;-7.920;2023-03-14T16:18:49;11.02;;;2.40;;
60873;SDS011;46715;40.642;-7.920;2023-03-14T16:20:57;10.53;;;2.90;;
60873;SDS011;46715;40.642;-7.920;2023-03-14T16:23:02;7.88;;;2.88;;
60873;SDS011;46715;40.642;-7.920;2023-03-14T16:25:04;10.03;;;2.40;;
60873;SDS011;46715;40.642;-7.920;2023-03-14T16:27:06;11.35;;;2.28;;
60873;SDS011;46715;40.642;-7.920;2023-03-14T16:29:07;11.70;;;2.90;;
60873;SDS011;46715;40.642;-7.920;2023-03-14T16:31:09;11.43;;;3.00;;
60873;SDS011;46715;40.642;-7.920;2023-03-14T16:33:11;12.70;;;2.95;;
60873;SDS011;46715;40.642;-7.920;2023-03-14T16:35:12;12.75;;;3.40;;
60873;SDS011;46715;40.642;-7.920;2023-03-14T16:37:12;12.10;;;3.30;;
60873;SDS011;46715;40.642;-7.920;2023-03-14T16:39:13;13.97;;;2.90;;
60873;SDS011;46715;40.642;-7.920;2023-03-14T16:41:15;5.80;;;2.33;;
60873;SDS011;46715;40.642;-7.920;2023-03-14T16:43:18;10.50;;;2.92;;
60873;SDS011;46715;40.642;-7.920;2023-03-14T16:45:19;9.40;;;3.13;;
60873;SDS011;46715;40.642;-7.920;2023-03-14T16:47:20;6.80;;;2.58;;
60873;SDS011;46715;40.642;-7.920;2023-03-14T16:49:21;12.77;;;2.60;;
60873;SDS011;46715;40.642;-7.920;2023-03-14T16:51:22;9.25;;;2.70;;
60873;SDS011;46715;40.642;-7.920;2023-03-14T16:53:23;6.90;;;2.45;;
60873;SDS011;46715;40.642;-7.920;2023-03-14T16:55:26;16.50;;;3.15;;
60873;SDS011;46715;40.642;-7.920;2023-03-14T16:57:27;7.17;;;2.47;;
60873;SDS011;46715;40.642;-7.920;2023-03-14T16:59:28;9.40;;;2.30;;
60873;SDS011;46715;40.642;-7.920;2023-03-14T17:01:29;9.57;;;2.10;;
60873;SDS011;46715;40.642;-7.920;2023-03-14T17:03:30;8.63;;;2.70;;
60873;SDS011;46715;40.642;-7.920;2023-03-14T17:05:30;9.37;;;2.70;;
60873;SDS011;46715;40.642;-7.920;2023-03-14T17:07:32;8.43;;;2.72;;
60873;SDS011;46715;40.642;-7.920;2023-03-14T17:09:33;11.60;;;3.20;;
60873;SDS011;46715;40.642;-7.920;2023-03-14T17:11:33;10.87;;;2.93;;
60873;SDS011;46715;40.642;-7.920;2023-03-14T17:13:34;13.02;;;2.92;;
60873;SDS011;46715;40.642;-7.920;2023-03-14T17:15:36;8.68;;;2.60;;
60873;SDS011;46715;40.642;-7.920;2023-03-14T17:17:37;9.43;;;2.88;;
60873;SDS011;46715;40.642;-7.920;2023-03-14T17:19:38;10.82;;;3.15;;
60873;SDS011;46715;40.642;-7.920;2023-03-14T17:21:39;7.17;;;2.53;;
60873;SDS011;46715;40.642;-7.920;2023-03-14T17:23:40;11.47;;;3.13;;
60873;SDS011;46715;40.642;-7.920;2023-03-14T17:25:40;10.70;;;2.80;;
60873;SDS011;46715;40.642;-7.920;2023-03-14T17:27:41;8.50;;;2.78;;
60873;SDS011;46715;40.642;-7.920;2023-03-14T17:29:42;10.70;;;3.03;;
60873;SDS011;46715;40.642;-7.920;2023-03-14T17:31:44;13.25;;;3.00;;
60873;SDS011;46715;40.642;-7.920;2023-03-14T17:33:44;11.77;;;2.93;;
60873;SDS011;46715;40.642;-7.920;2023-03-14T17:35:45;13.73;;;3.90;;
60873;SDS011;46715;40.642;-7.920;2023-03-14T17:37:46;9.57;;;3.57;;
60873;SDS011;46715;40.642;-7.920;2023-03-14T17:39:47;13.23;;;3.20;;
60873;SDS011;46715;40.642;-7.920;2023-03-14T17:41:47;13.83;;;3.50;;
60873;SDS011;46715;40.642;-7.920;2023-03-14T17:43:48;12.63;;;2.93;;
60873;SDS011;46715;40.642;-7.920;2023-03-14T17:45:55;15.80;;;2.60;;
60873;SDS011;46715;40.642;-7.920;2023-03-14T17:48:00;11.03;;;3.10;;
60873;SDS011;46715;40.642;-7.920;2023-03-14T17:50:03;6.72;;;2.58;;
60873;SDS011;46715;40.642;-7.920;2023-03-14T17:52:05;12.57;;;3.30;;
60873;SDS011;46715;40.642;-7.920;2023-03-14T17:54:07;14.88;;;3.53;;
60873;SDS011;46715;40.642;-7.920;2023-03-14T17:56:08;12.83;;;3.23;;
60873;SDS011;46715;40.642;-7.920;2023-03-14T17:58:10;14.35;;;3.65;;
60873;SDS011;46715;40.642;-7.920;2023-03-14T18:00:12;13.35;;;3.72;;
60873;SDS011;46715;40.642;-7.920;2023-03-14T18:02:13;12.23;;;2.72;;
60873;SDS011;46715;40.642;-7.920;2023-03-14T18:04:14;11.07;;;3.38;;
60873;SDS011;46715;40.642;-7.920;2023-03-14T18:06:16;9.20;;;3.10;;
60873;SDS011;46715;40.642;-7.920;2023-03-14T18:08:17;13.97;;;3.90;;
60873;SDS011;46715;40.642;-7.920;2023-03-14T18:10:17;6.07;;;2.50;;
60873;SDS011;46715;40.642;-7.920;2023-03-14T18:12:20;17.85;;;3.72;;
60873;SDS011;46715;40.642;-7.920;2023-03-14T18:14:22;11.20;;;3.10;;
60873;SDS011;46715;40.642;-7.920;2023-03-14T18:16:22;11.30;;;3.83;;
60873;SDS011;46715;40.642;-7.920;2023-03-14T18:18:23;12.00;;;3.67;;
60873;SDS011;46715;40.642;-7.920;2023-03-14T18:20:24;17.92;;;4.38;;
60873;SDS011;46715;40.642;-7.920;2023-03-14T18:22:25;10.60;;;3.43;;
60873;SDS011;46715;40.642;-7.920;2023-03-14T18:24:27;14.25;;;3.70;;
60873;SDS011;46715;40.642;-7.920;2023-03-14T18:26:27;20.57;;;3.63;;
60873;SDS011;46715;40.642;-7.920;2023-03-14T18:28:37;14.27;;;3.53;;
60873;SDS011;46715;40.642;-7.920;2023-03-14T18:30:40;18.77;;;4.00;;
60873;SDS011;46715;40.642;-7.920;2023-03-14T18:32:42;13.85;;;4.95;;
60873;SDS011;46715;40.642;-7.920;2023-03-14T18:34:44;18.63;;;5.38;;
60873;SDS011;46715;40.642;-7.920;2023-03-14T22:04:37;19.88;;;9.52;;
60873;SDS011;46715;40.642;-7.920;2023-03-14T22:18:47;19.98;;;8.73;;
60873;SDS011;46715;40.642;-7.920;2023-03-14T22:21:02;16.77;;;8.07;;
60873;SDS011;46715;40.642;-7.920;2023-03-14T22:26:53;26.05;;;8.63;;
60873;SDS011;46715;40.642;-7.920;2023-03-14T22:32:03;25.63;;;10.05;;
60873;SDS011;46715;40.642;-7.920;2023-03-14T22:34:13;19.40;;;10.10;;
60873;SDS011;46715;40.642;-7.920;2023-03-14T22:36:19;18.15;;;10.55;;
60873;SDS011;46715;40.642;-7.920;2023-03-14T22:38:20;26.10;;;11.50;;
60873;SDS011;46715;40.642;-7.920;2023-03-14T22:40:24;27.23;;;12.67;;
60873;SDS011;46715;40.642;-7.920;2023-03-14T22:42:29;28.30;;;13.90;;
60873;SDS011;46715;40.642;-7.920;2023-03-14T22:44:30;33.60;;;15.98;;
60873;SDS011;46715;40.642;-7.920;2023-03-14T22:47:03;26.42;;;12.70;;
60873;SDS011;46715;40.642;-7.920;2023-03-14T22:49:23;24.30;;;12.30;;
60873;SDS011;46715;40.642;-7.920;2023-03-14T22:54:53;29.52;;;12.73;;
60873;SDS011;46715;40.642;-7.920;2023-03-14T22:56:54;25.23;;;12.35;;
60873;SDS011;46715;40.642;-7.920;2023-03-14T22:58:58;24.27;;;10.63;;
60873;SDS011;46715;40.642;-7.920;2023-03-14T23:01:15;28.85;;;12.32;;
60873;SDS011;46715;40.642;-7.920;2023-03-14T23:03:18;29.00;;;14.18;;
60873;SDS011;46715;40.642;-7.920;2023-03-14T23:05:22;29.83;;;14.05;;
60873;SDS011;46715;40.642;-7.920;2023-03-14T23:07:23;20.35;;;14.23;;
60873;SDS011;46715;40.642;-7.920;2023-03-14T23:09:33;27.73;;;14.90;;
60873;SDS011;46715;40.642;-7.920;2023-03-14T23:11:34;26.85;;;14.70;;
60873;SDS011;46715;40.642;-7.920;2023-03-14T23:13:35;27.73;;;14.13;;
60873;SDS011;46715;40.642;-7.920;2023-03-14T23:15:35;33.83;;;15.37;;
60873;SDS011;46715;40.642;-7.920;2023-03-14T23:17:37;28.80;;;14.02;;
60873;SDS011;46715;40.642;-7.920;2023-03-14T23:19:38;26.67;;;14.80;;
60873;SDS011;46715;40.642;-7.920;2023-03-14T23:21:38;26.07;;;15.20;;
60873;SDS011;46715;40.642;-7.920;2023-03-14T23:23:39;25.07;;;16.10;;
60873;SDS011;46715;40.642;-7.920;2023-03-14T23:25:41;32.10;;;16.65;;
60873;SDS011;46715;40.642;-7.920;2023-03-14T23:27:42;31.63;;;16.33;;
60873;SDS011;46715;40.642;-7.920;2023-03-14T23:29:45;29.15;;;15.68;;
60873;SDS011;46715;40.642;-7.920;2023-03-14T23:31:46;31.30;;;16.47;;
60873;SDS011;46715;40.642;-7.920;2023-03-14T23:33:47;39.77;;;15.73;;
60873;SDS011;46715;40.642;-7.920;2023-03-14T23:35:49;22.05;;;12.25;;
60873;SDS011;46715;40.642;-7.920;2023-03-14T23:37:50;22.23;;;12.77;;
60873;SDS011;46715;40.642;-7.920;2023-03-14T23:39:51;24.97;;;13.57;;
60873;SDS011;46715;40.642;-7.920;2023-03-14T23:41:52;20.07;;;11.80;;
60873;SDS011;46715;40.642;-7.920;2023-03-14T23:43:53;25.23;;;11.47;;
60873;SDS011;46715;40.642;-7.920;2023-03-14T23:45:54;23.50;;;12.23;;
60873;SDS011;46715;40.642;-7.920;2023-03-14T23:47:56;26.08;;;12.05;;
60873;SDS011;46715;40.642;-7.920;2023-03-14T23:49:58;22.13;;;11.27;;
60873;SDS011;46715;40.642;-7.920;2023-03-14T23:51:58;22.73;;;12.60;;
60873;SDS011;46715;40.642;-7.920;2023-03-14T23:53:59;22.63;;;11.50;;
60873;SDS011;46715;40.642;-7.920;2023-03-14T23:56:00;24.83;;;12.77;;
60873;SDS011;46715;40.642;-7.920;2023-03-14T23:58:01;30.60;;;12.98;;
